createdAt,value
2018-08-28T00:02:25.140Z,17.90
2018-08-28T00:04:53.288Z,17.90
2018-08-28T00:07:21.532Z,17.80
2018-08-28T00:09:49.837Z,17.80
2018-08-28T00:12:17.986Z,17.80
2018-08-28T00:14:46.317Z,17.70
2018-08-28T00:17:14.431Z,17.70
2018-08-28T00:19:42.528Z,17.70
2018-08-28T00:22:10.750Z,17.70
2018-08-28T00:24:38.882Z,17.60
2018-08-28T00:27:07.908Z,17.60
2018-08-28T00:29:36.078Z,17.60
2018-08-28T00:32:04.980Z,17.70
2018-08-28T00:34:33.896Z,17.70
2018-08-28T00:37:02.663Z,17.70
2018-08-28T00:39:30.796Z,17.70
2018-08-28T00:41:59.132Z,17.70
2018-08-28T00:44:27.228Z,17.70
2018-08-28T00:46:55.349Z,17.70
2018-08-28T00:49:23.450Z,17.70
2018-08-28T00:51:51.547Z,17.70
2018-08-28T00:54:19.801Z,17.70
2018-08-28T00:56:48.043Z,17.70
2018-08-28T00:59:16.246Z,17.70
2018-08-28T01:01:45.506Z,17.70
2018-08-28T01:04:14.198Z,17.70
2018-08-28T01:06:42.382Z,17.70
2018-08-28T01:09:10.510Z,17.80
2018-08-28T01:11:38.618Z,17.80
2018-08-28T01:14:06.764Z,17.70
2018-08-28T01:16:34.910Z,17.70
2018-08-28T01:19:03.186Z,17.70
2018-08-28T01:21:31.790Z,17.70
2018-08-28T01:24:00.026Z,17.70
2018-08-28T01:26:28.142Z,17.60
2018-08-28T01:28:58.762Z,17.60
2018-08-28T01:31:26.954Z,17.60
2018-08-28T01:33:56.272Z,17.60
2018-08-28T01:36:24.554Z,17.60
2018-08-28T01:38:53.844Z,17.60
2018-08-28T01:41:21.982Z,17.50
2018-08-28T01:43:50.064Z,17.50
2018-08-28T01:46:18.242Z,17.50
2018-08-28T01:48:46.376Z,17.50
2018-08-28T01:51:16.056Z,17.40
2018-08-28T01:53:44.334Z,17.40
2018-08-28T01:56:12.922Z,17.40
2018-08-28T01:58:42.380Z,17.40
2018-08-28T02:01:10.608Z,17.40
2018-08-28T02:03:38.718Z,17.30
2018-08-28T02:06:07.298Z,17.30
2018-08-28T02:08:35.964Z,17.30
2018-08-28T02:11:04.096Z,17.30
2018-08-28T02:13:32.292Z,17.30
2018-08-28T02:16:00.447Z,17.20
2018-08-28T02:18:28.590Z,17.20
2018-08-28T02:20:56.748Z,17.20
2018-08-28T02:23:25.796Z,17.20
2018-08-28T02:25:54.007Z,17.20
2018-08-28T02:28:22.116Z,17.10
2018-08-28T02:30:50.223Z,17.10
2018-08-28T02:33:18.329Z,17.10
2018-08-28T02:35:46.470Z,17.10
2018-08-28T02:38:14.646Z,17.00
2018-08-28T02:40:42.757Z,17.00
2018-08-28T02:43:10.906Z,17.00
2018-08-28T02:45:40.076Z,16.90
2018-08-28T02:48:14.182Z,16.90
2018-08-28T02:50:42.318Z,16.80
2018-08-28T02:53:10.440Z,16.80
2018-08-28T02:55:38.566Z,16.80
2018-08-28T02:58:06.676Z,16.80
2018-08-28T03:00:35.639Z,16.80
2018-08-28T03:03:06.232Z,16.90
2018-08-28T03:05:34.510Z,16.90
2018-08-28T03:08:02.789Z,16.90
2018-08-28T03:10:32.187Z,16.90
2018-08-28T03:13:00.316Z,16.90
2018-08-28T03:15:29.370Z,16.90
2018-08-28T03:17:57.728Z,16.90
2018-08-28T03:20:25.906Z,16.90
2018-08-28T03:22:55.164Z,16.90
2018-08-28T03:25:23.356Z,16.90
2018-08-28T03:27:51.691Z,16.90
2018-08-28T03:30:21.708Z,16.90
2018-08-28T03:32:49.882Z,16.90
2018-08-28T03:35:18.321Z,16.90
2018-08-28T03:37:46.989Z,16.90
2018-08-28T03:40:15.148Z,16.90
2018-08-28T03:42:43.405Z,16.90
2018-08-28T03:45:13.194Z,16.90
2018-08-28T03:47:43.436Z,16.90
2018-08-28T03:50:11.582Z,16.90
2018-08-28T03:52:39.744Z,16.90
2018-08-28T03:55:09.538Z,16.90
2018-08-28T03:57:37.726Z,16.80
2018-08-28T04:00:05.954Z,16.80
2018-08-28T04:02:34.194Z,17.10
2018-08-28T04:05:02.403Z,16.80
2018-08-28T04:07:30.750Z,16.80
2018-08-28T04:09:58.906Z,16.80
2018-08-28T04:12:27.240Z,16.80
2018-08-28T04:14:55.326Z,16.80
2018-08-28T04:17:23.509Z,16.80
2018-08-28T04:19:53.046Z,16.80
2018-08-28T04:22:21.204Z,16.80
2018-08-28T04:24:49.335Z,16.70
2018-08-28T04:27:17.496Z,16.70
2018-08-28T04:29:45.591Z,16.70
2018-08-28T04:32:13.923Z,16.70
2018-08-28T04:34:42.042Z,16.70
2018-08-28T04:37:10.428Z,16.70
2018-08-28T04:39:38.635Z,16.70
2018-08-28T04:42:06.818Z,16.70
2018-08-28T04:44:34.949Z,16.70
2018-08-28T04:47:03.115Z,16.70
2018-08-28T04:49:31.382Z,16.70
2018-08-28T04:51:59.570Z,16.70
2018-08-28T04:54:29.217Z,16.80
2018-08-28T04:56:58.272Z,16.70
2018-08-28T04:59:26.478Z,16.80
2018-08-28T05:01:54.677Z,16.80
2018-08-28T05:04:23.547Z,16.80
2018-08-28T05:06:52.311Z,16.80
2018-08-28T05:09:20.464Z,16.80
2018-08-28T05:11:48.742Z,16.80
2018-08-28T05:14:16.874Z,16.80
2018-08-28T05:16:45.707Z,16.90
2018-08-28T05:19:13.864Z,16.90
2018-08-28T05:21:41.982Z,17.00
2018-08-28T05:24:10.129Z,17.00
2018-08-28T05:26:38.563Z,17.10
2018-08-28T05:29:06.715Z,17.10
2018-08-28T05:31:34.947Z,17.20
2018-08-28T05:34:03.088Z,17.20
2018-08-28T05:36:31.236Z,17.20
2018-08-28T05:38:59.339Z,17.30
2018-08-28T05:41:27.546Z,17.30
2018-08-28T05:43:55.756Z,17.30
2018-08-28T05:46:24.711Z,17.30
2018-08-28T05:48:53.441Z,17.30
2018-08-28T05:51:21.569Z,17.30
2018-08-28T05:53:49.817Z,17.30
2018-08-28T05:56:18.164Z,17.40
2018-08-28T05:58:46.347Z,17.50
2018-08-28T06:01:14.875Z,17.70
2018-08-28T06:03:44.327Z,17.90
2018-08-28T06:06:13.251Z,18.10
2018-08-28T06:08:41.457Z,18.10
2018-08-28T06:11:09.616Z,18.20
2018-08-28T06:13:37.913Z,18.30
2018-08-28T06:16:06.083Z,18.40
2018-08-28T06:18:34.251Z,18.60
2018-08-28T06:21:02.515Z,18.60
2018-08-28T06:23:30.760Z,18.70
2018-08-28T06:25:59.923Z,18.80
2018-08-28T06:28:28.207Z,18.90
2018-08-28T06:30:56.447Z,18.90
2018-08-28T06:33:25.375Z,19.00
2018-08-28T06:35:53.653Z,18.90
2018-08-28T06:38:21.952Z,19.00
2018-08-28T06:40:50.099Z,19.10
2018-08-28T06:43:18.234Z,19.20
2018-08-28T06:45:46.411Z,19.20
2018-08-28T06:48:14.700Z,19.20
2018-08-28T06:50:42.849Z,19.20
2018-08-28T06:53:11.169Z,19.30
2018-08-28T06:55:39.506Z,19.40
2018-08-28T06:58:07.721Z,19.50
2018-08-28T07:00:36.757Z,19.70
2018-08-28T07:03:04.989Z,19.80
2018-08-28T07:05:33.161Z,19.90
2018-08-28T07:08:01.386Z,20.00
2018-08-28T07:10:30.880Z,20.00
2018-08-28T07:12:59.019Z,20.00
2018-08-28T07:15:27.332Z,20.10
2018-08-28T07:17:55.523Z,20.20
2018-08-28T07:20:23.777Z,20.20
2018-08-28T07:22:52.574Z,20.40
2018-08-28T07:25:20.777Z,20.40
2018-08-28T07:27:48.996Z,20.40
2018-08-28T07:30:17.320Z,20.30
2018-08-28T07:32:45.469Z,20.30
2018-08-28T07:35:13.811Z,20.30
2018-08-28T07:37:43.419Z,20.30
2018-08-28T07:40:11.659Z,20.40
2018-08-28T07:42:42.836Z,20.40
2018-08-28T07:45:11.029Z,20.30
2018-08-28T07:47:39.157Z,20.30
2018-08-28T07:50:10.523Z,20.30
2018-08-28T07:52:38.664Z,20.30
2018-08-28T07:55:06.851Z,20.30
2018-08-28T07:57:35.059Z,20.20
2018-08-28T08:00:03.337Z,20.30
2018-08-28T08:02:31.499Z,20.30
2018-08-28T08:04:59.715Z,20.30
2018-08-28T08:07:28.738Z,20.30
2018-08-28T08:09:56.989Z,20.40
2018-08-28T08:12:25.219Z,20.50
2018-08-28T08:14:53.717Z,20.50
2018-08-28T08:17:24.881Z,20.50
2018-08-28T08:19:53.771Z,20.50
2018-08-28T08:22:22.004Z,20.50
2018-08-28T08:24:50.134Z,20.50
2018-08-28T08:27:18.349Z,20.50
2018-08-28T08:29:46.542Z,20.60
2018-08-28T08:32:14.647Z,20.70
2018-08-28T08:34:42.785Z,20.70
2018-08-28T08:37:11.632Z,20.90
2018-08-28T08:39:39.844Z,20.90
2018-08-28T08:42:08.214Z,20.90
2018-08-28T08:44:36.363Z,20.80
2018-08-28T08:47:06.632Z,20.80
2018-08-28T08:49:36.029Z,20.90
2018-08-28T08:52:04.415Z,20.90
2018-08-28T08:54:32.783Z,21.00
2018-08-28T08:57:00.901Z,21.10
2018-08-28T08:59:29.069Z,21.10
2018-08-28T09:01:57.519Z,21.10
2018-08-28T09:04:25.713Z,21.00
2018-08-28T09:06:53.864Z,21.00
2018-08-28T09:09:22.202Z,20.90
2018-08-28T09:11:50.393Z,20.90
2018-08-28T09:14:18.559Z,20.80
2018-08-28T09:16:46.751Z,20.80
2018-08-28T09:19:14.912Z,20.90
2018-08-28T09:21:43.100Z,20.80
2018-08-28T09:24:11.269Z,20.80
2018-08-28T09:26:39.471Z,20.90
2018-08-28T09:29:09.263Z,20.90
2018-08-28T09:31:37.412Z,20.90
2018-08-28T09:34:05.750Z,20.90
2018-08-28T09:36:34.002Z,21.00
2018-08-28T09:39:02.219Z,21.30
2018-08-28T09:41:30.396Z,21.60
2018-08-28T09:43:59.555Z,21.80
2018-08-28T09:46:27.665Z,22.00
2018-08-28T09:48:55.888Z,22.10
2018-08-28T09:51:24.013Z,22.20
2018-08-28T09:53:52.184Z,22.20
2018-08-28T09:56:20.336Z,22.10
2018-08-28T09:58:48.577Z,22.10
2018-08-28T10:01:22.363Z,22.20
2018-08-28T10:03:50.579Z,22.20
2018-08-28T10:06:20.397Z,22.30
2018-08-28T10:08:48.513Z,22.40
2018-08-28T10:11:16.683Z,22.50
2018-08-28T10:13:44.859Z,22.60
2018-08-28T10:16:13.163Z,22.70
2018-08-28T10:18:41.391Z,22.80
2018-08-28T10:21:09.642Z,22.90
2018-08-28T10:23:37.839Z,22.90
2018-08-28T10:26:06.107Z,22.90
2018-08-28T10:28:34.414Z,23.00
2018-08-28T10:31:02.939Z,23.20
2018-08-28T10:33:33.427Z,23.20
2018-08-28T10:36:01.628Z,23.10
2018-08-28T10:38:31.280Z,23.20
2018-08-28T10:41:01.444Z,23.10
2018-08-28T10:43:31.151Z,23.20
2018-08-28T10:45:59.423Z,23.20
2018-08-28T10:48:27.583Z,23.10
2018-08-28T10:50:55.753Z,23.20
2018-08-28T10:53:23.921Z,23.10
2018-08-28T10:55:52.063Z,23.00
2018-08-28T10:58:20.241Z,23.00
2018-08-28T11:00:48.713Z,23.10
2018-08-28T11:03:16.944Z,23.20
2018-08-28T11:05:45.353Z,23.20
2018-08-28T11:08:13.985Z,23.30
2018-08-28T11:10:42.211Z,23.20
2018-08-28T11:13:10.758Z,23.10
2018-08-28T11:15:38.955Z,23.10
2018-08-28T11:18:07.275Z,23.00
2018-08-28T11:20:35.418Z,23.10
2018-08-28T11:23:03.636Z,23.20
2018-08-28T11:25:32.454Z,23.40
2018-08-28T11:28:00.891Z,23.60
2018-08-28T11:30:29.205Z,23.50
2018-08-28T11:32:58.491Z,23.40
2018-08-28T11:35:26.839Z,23.30
2018-08-28T11:37:55.029Z,23.10
2018-08-28T11:40:23.501Z,23.10
2018-08-28T11:42:53.113Z,23.10
2018-08-28T11:45:21.291Z,23.20
2018-08-28T11:47:49.529Z,23.50
2018-08-28T11:50:17.678Z,23.80
2018-08-28T11:52:45.896Z,24.00
2018-08-28T11:55:14.165Z,24.30
2018-08-28T11:57:48.965Z,24.50
2018-08-28T12:00:17.347Z,24.60
2018-08-28T12:02:45.778Z,24.70
2018-08-28T12:05:14.100Z,24.70
2018-08-28T12:07:42.330Z,24.70
2018-08-28T12:10:10.920Z,24.60
2018-08-28T12:12:39.623Z,24.50
2018-08-28T12:15:07.767Z,24.20
2018-08-28T12:17:36.332Z,24.00
2018-08-28T12:20:05.257Z,23.90
2018-08-28T12:22:33.434Z,23.90
2018-08-28T12:25:01.638Z,24.00
2018-08-28T12:27:29.849Z,24.00
2018-08-28T12:29:58.094Z,24.10
2018-08-28T12:32:26.283Z,24.20
2018-08-28T12:34:55.626Z,24.30
2018-08-28T12:37:23.826Z,24.40
2018-08-28T12:39:52.025Z,24.50
2018-08-28T12:42:20.178Z,24.40
2018-08-28T12:44:48.437Z,24.40
2018-08-28T12:47:16.691Z,24.40
2018-08-28T12:49:44.918Z,24.40
2018-08-28T12:52:13.119Z,24.50
2018-08-28T12:54:41.428Z,24.60
2018-08-28T12:57:09.817Z,24.70
2018-08-28T12:59:37.966Z,24.80
2018-08-28T13:02:06.247Z,24.80
2018-08-28T13:04:34.481Z,24.70
2018-08-28T13:07:04.037Z,24.70
2018-08-28T13:09:32.170Z,24.60
2018-08-28T13:12:00.295Z,24.60
2018-08-28T13:14:28.470Z,24.70
2018-08-28T13:16:56.659Z,24.80
2018-08-28T13:19:25.052Z,24.70
2018-08-28T13:21:53.243Z,24.70
2018-08-28T13:24:21.401Z,24.90
2018-08-28T13:26:49.537Z,25.00
2018-08-28T13:29:17.789Z,25.10
2018-08-28T13:31:47.086Z,25.00
2018-08-28T13:34:15.268Z,24.90
2018-08-28T13:36:43.536Z,24.80
2018-08-28T13:39:11.835Z,24.90
2018-08-28T13:41:39.992Z,24.90
2018-08-28T13:44:08.717Z,24.90
2018-08-28T13:46:36.874Z,24.80
2018-08-28T13:49:05.254Z,24.70
2018-08-28T13:51:33.413Z,24.60
2018-08-28T13:54:02.560Z,24.50
2018-08-28T13:56:30.743Z,24.60
2018-08-28T13:58:58.865Z,24.60
2018-08-28T14:01:27.079Z,24.60
2018-08-28T14:03:55.293Z,24.50
2018-08-28T14:06:23.543Z,24.40
2018-08-28T14:08:51.705Z,24.30
2018-08-28T14:11:19.861Z,24.20
2018-08-28T14:13:48.143Z,24.30
2018-08-28T14:16:16.250Z,24.30
2018-08-28T14:18:45.063Z,24.30
2018-08-28T14:21:14.010Z,24.30
2018-08-28T14:23:42.187Z,24.30
2018-08-28T14:26:10.322Z,24.20
2018-08-28T14:28:38.674Z,24.20
2018-08-28T14:31:07.020Z,24.30
2018-08-28T14:33:35.224Z,24.40
2018-08-28T14:36:03.477Z,24.40
2018-08-28T14:38:32.252Z,24.40
2018-08-28T14:41:00.397Z,24.30
2018-08-28T14:43:28.525Z,24.30
2018-08-28T14:45:56.819Z,24.30
2018-08-28T14:48:25.151Z,24.40
2018-08-28T14:50:53.553Z,24.40
2018-08-28T14:53:21.685Z,24.40
2018-08-28T14:55:49.838Z,24.40
2018-08-28T14:58:18.025Z,24.40
2018-08-28T15:00:46.323Z,24.30
2018-08-28T15:03:14.464Z,24.30
2018-08-28T15:05:42.753Z,24.10
2018-08-28T15:08:11.075Z,24.10
2018-08-28T15:10:39.319Z,24.10
2018-08-28T15:13:07.801Z,24.20
2018-08-28T15:15:36.109Z,24.10
2018-08-28T15:18:04.496Z,24.10
2018-08-28T15:20:32.706Z,24.00
2018-08-28T15:23:00.890Z,23.80
2018-08-28T15:25:29.022Z,23.70
2018-08-28T15:27:57.159Z,23.60
2018-08-28T15:30:25.376Z,23.60
2018-08-28T15:32:53.697Z,23.60
2018-08-28T15:35:21.902Z,23.50
2018-08-28T15:37:50.031Z,23.50
2018-08-28T15:40:18.270Z,23.50
2018-08-28T15:42:46.544Z,23.50
2018-08-28T15:45:14.719Z,23.50
2018-08-28T15:47:42.895Z,23.50
2018-08-28T15:50:11.239Z,23.60
2018-08-28T15:52:40.083Z,23.60
2018-08-28T15:55:08.369Z,23.50
2018-08-28T15:57:36.722Z,23.40
2018-08-28T16:00:05.660Z,23.30
2018-08-28T16:02:33.968Z,23.30
2018-08-28T16:05:02.468Z,23.30
2018-08-28T16:07:32.627Z,23.30
2018-08-28T16:10:00.784Z,23.20
2018-08-28T16:12:29.074Z,23.10
2018-08-28T16:14:57.269Z,23.00
2018-08-28T16:17:25.419Z,22.90
2018-08-28T16:19:53.653Z,22.80
2018-08-28T16:22:26.911Z,22.80
2018-08-28T16:24:55.087Z,22.70
2018-08-28T16:27:23.295Z,22.60
2018-08-28T16:29:51.673Z,22.60
2018-08-28T16:32:19.961Z,22.50
2018-08-28T16:34:48.788Z,22.50
2018-08-28T16:37:17.046Z,22.50
2018-08-28T16:39:45.258Z,22.50
2018-08-28T16:42:13.613Z,22.40
2018-08-28T16:44:42.063Z,22.40
2018-08-28T16:47:10.237Z,22.30
2018-08-28T16:49:38.473Z,22.30
2018-08-28T16:52:06.868Z,22.30
2018-08-28T16:54:35.095Z,22.30
2018-08-28T16:57:03.301Z,22.30
2018-08-28T16:59:31.472Z,22.30
2018-08-28T17:01:59.775Z,22.30
2018-08-28T17:04:27.951Z,22.20
2018-08-28T17:06:56.231Z,22.90
2018-08-28T17:09:25.869Z,22.20
2018-08-28T17:11:54.042Z,22.10
2018-08-28T17:14:22.331Z,22.10
2018-08-28T17:16:50.544Z,22.10
2018-08-28T17:19:18.713Z,22.10
2018-08-28T17:21:46.986Z,22.00
2018-08-28T17:24:15.204Z,22.00
2018-08-28T17:26:43.596Z,21.90
2018-08-28T17:29:11.759Z,21.90
2018-08-28T17:31:39.955Z,21.80
2018-08-28T17:34:08.146Z,21.60
2018-08-28T17:36:36.293Z,21.50
2018-08-28T17:39:05.452Z,21.30
2018-08-28T17:41:33.633Z,21.20
2018-08-28T17:44:01.823Z,21.10
2018-08-28T17:46:30.020Z,21.00
2018-08-28T17:48:58.322Z,20.90
2018-08-28T17:51:26.471Z,20.70
2018-08-28T17:53:54.640Z,20.60
2018-08-28T17:56:22.947Z,20.50
2018-08-28T17:58:51.175Z,20.40
2018-08-28T18:01:19.365Z,20.30
2018-08-28T18:03:48.571Z,20.20
2018-08-28T18:06:16.770Z,20.20
2018-08-28T18:08:44.914Z,20.10
2018-08-28T18:11:13.116Z,20.00
2018-08-28T18:13:41.470Z,19.90
2018-08-28T18:16:10.217Z,19.80
2018-08-28T18:18:38.404Z,19.70
2018-08-28T18:21:06.596Z,19.60
2018-08-28T18:23:37.747Z,19.50
2018-08-28T18:26:06.181Z,19.40
2018-08-28T18:28:35.994Z,19.40
2018-08-28T18:31:04.246Z,19.30
2018-08-28T18:33:32.732Z,19.20
2018-08-28T18:36:01.419Z,19.20
2018-08-28T18:38:31.635Z,19.20
2018-08-28T18:41:00.999Z,19.20
2018-08-28T18:43:30.403Z,19.20
2018-08-28T18:45:59.841Z,19.20
2018-08-28T18:48:28.050Z,19.10
2018-08-28T18:50:56.255Z,19.10
2018-08-28T18:53:24.553Z,19.00
2018-08-28T18:55:53.570Z,18.90
2018-08-28T18:58:21.978Z,18.90
2018-08-28T19:00:51.430Z,18.80
2018-08-28T19:03:19.802Z,18.80
2018-08-28T19:05:48.047Z,18.80
2018-08-28T19:08:16.355Z,18.80
2018-08-28T19:10:44.557Z,18.70
2018-08-28T19:13:12.903Z,18.60
2018-08-28T19:15:41.047Z,18.60
2018-08-28T19:18:09.318Z,18.50
2018-08-28T19:20:37.623Z,18.50
2018-08-28T19:23:07.433Z,18.40
2018-08-28T19:25:35.713Z,18.40
2018-08-28T19:28:03.959Z,18.40
2018-08-28T19:30:32.749Z,18.30
2018-08-28T19:33:00.962Z,18.30
2018-08-28T19:35:29.803Z,18.30
2018-08-28T19:37:58.144Z,18.20
2018-08-28T19:40:27.137Z,18.20
2018-08-28T19:42:55.972Z,18.10
2018-08-28T19:45:24.275Z,18.10
2018-08-28T19:47:52.500Z,18.10
2018-08-28T19:50:20.770Z,18.10
2018-08-28T19:52:48.967Z,18.00
2018-08-28T19:55:18.055Z,18.00
2018-08-28T19:57:46.223Z,18.00
2018-08-28T20:00:14.369Z,18.00
2018-08-28T20:02:42.626Z,17.90
2018-08-28T20:05:11.772Z,17.90
2018-08-28T20:07:42.369Z,17.80
2018-08-28T20:10:10.636Z,17.70
2018-08-28T20:12:40.150Z,17.70
2018-08-28T20:15:09.427Z,17.70
2018-08-28T20:17:38.687Z,17.60
2018-08-28T20:20:07.064Z,17.60
2018-08-28T20:22:35.548Z,17.60
2018-08-28T20:25:04.704Z,17.50
2018-08-28T20:27:32.918Z,17.50
2018-08-28T20:30:01.156Z,17.50
2018-08-28T20:32:29.821Z,17.50
2018-08-28T20:34:59.361Z,17.40
2018-08-28T20:37:27.676Z,17.40
2018-08-28T20:39:56.039Z,17.40
2018-08-28T20:42:24.355Z,17.30
2018-08-28T20:44:52.697Z,17.30
2018-08-28T20:47:21.199Z,17.30
2018-08-28T20:49:49.392Z,17.20
2018-08-28T20:52:17.561Z,17.20
2018-08-28T20:54:45.709Z,17.10
2018-08-28T20:57:13.979Z,17.10
2018-08-28T20:59:42.254Z,17.10
2018-08-28T21:02:10.593Z,17.00
2018-08-28T21:04:39.046Z,17.00
2018-08-28T21:07:07.498Z,17.00
2018-08-28T21:09:35.719Z,17.00
2018-08-28T21:12:03.938Z,16.90
2018-08-28T21:14:32.249Z,16.90
2018-08-28T21:17:00.422Z,16.90
2018-08-28T21:19:28.682Z,16.90
2018-08-28T21:21:56.935Z,16.90
2018-08-28T21:24:25.172Z,16.90
2018-08-28T21:26:53.396Z,16.80
2018-08-28T21:29:21.865Z,16.80
2018-08-28T21:31:50.012Z,16.80
2018-08-28T21:34:18.997Z,16.70
2018-08-28T21:36:47.189Z,16.70
2018-08-28T21:39:15.447Z,16.70
2018-08-28T21:41:43.761Z,16.70
2018-08-28T21:44:12.077Z,16.70
2018-08-28T21:46:40.543Z,16.60
2018-08-28T21:49:08.848Z,16.60
2018-08-28T21:51:37.054Z,16.60
2018-08-28T21:54:05.266Z,16.60
2018-08-28T21:56:33.419Z,16.60
2018-08-28T21:59:01.548Z,16.60
2018-08-28T22:01:29.721Z,16.50
2018-08-28T22:03:58.016Z,16.50
2018-08-28T22:06:31.588Z,16.50
2018-08-28T22:08:59.714Z,16.50
2018-08-28T22:11:28.144Z,16.50
2018-08-28T22:13:56.248Z,16.50
2018-08-28T22:16:24.439Z,16.40
2018-08-28T22:18:52.673Z,16.40
2018-08-28T22:21:20.868Z,16.40
2018-08-28T22:23:49.905Z,16.40
2018-08-28T22:26:18.076Z,16.40
2018-08-28T22:28:46.243Z,16.30
2018-08-28T22:31:14.494Z,16.30
2018-08-28T22:33:42.708Z,16.30
2018-08-28T22:36:11.454Z,16.30
2018-08-28T22:38:39.584Z,16.20
2018-08-28T22:41:07.937Z,16.20
2018-08-28T22:43:36.134Z,16.20
2018-08-28T22:46:04.388Z,16.20
2018-08-28T22:48:32.640Z,16.20
2018-08-28T22:51:00.947Z,16.10
2018-08-28T22:53:29.186Z,16.10
2018-08-28T22:55:57.358Z,16.10
2018-08-28T22:58:25.528Z,16.10
2018-08-28T23:00:53.804Z,16.00
2018-08-28T23:03:22.052Z,16.00
2018-08-28T23:05:50.382Z,16.00
2018-08-28T23:08:19.924Z,16.00
2018-08-28T23:10:48.080Z,16.00
2018-08-28T23:13:16.188Z,15.90
2018-08-28T23:15:44.427Z,15.90
2018-08-28T23:18:13.864Z,15.90
2018-08-28T23:20:41.992Z,15.90
2018-08-28T23:23:10.150Z,15.90
2018-08-28T23:25:39.740Z,15.80
2018-08-28T23:28:08.078Z,15.80
2018-08-28T23:30:36.344Z,15.80
2018-08-28T23:33:07.271Z,15.80
2018-08-28T23:35:35.426Z,15.80
2018-08-28T23:38:03.599Z,15.80
2018-08-28T23:40:31.829Z,15.70
2018-08-28T23:42:59.969Z,15.70
2018-08-28T23:45:28.146Z,15.70
2018-08-28T23:47:56.348Z,15.70
2018-08-28T23:50:24.476Z,15.70
2018-08-28T23:52:52.595Z,15.70
2018-08-28T23:55:20.692Z,15.60
2018-08-28T23:57:49.018Z,15.60
